Blanford, Indiana
Current Conditions -  °F | °C
As of 7:35 PM on Friday 21 Nov 2014 (Local Time) from KPRG Reporting Station
Clear Clear  
Wind Chill: 23°   Ceiling: Unl
Heat Index: 28°   Visibility: 10mi
Dew Point: 18°   Wind: 5mph
Humidity: 64%   Direction: 140°SE
Pressure: 30.36"   Gusts: NA
Location:  39.66°N, 87.52°W
Report Text: KPRG 220035Z AUTO 14004KT 10SM CLR M02/M08 A3036 RMK AO2 T10201080
Loading
Personal Weather Stations






























Interactive Weather Map New forecast layout! Learn more

10-Day Weather Forecast

Advertisements
Track Severe Weather on mobile